sensor_id;sensor_type;location;lat;lon;timestamp;P1;durP1;ratioP1;P2;durP2;ratioP2
75548;SDS011;64133;56.002;37.208;2023-07-29T00:03:17;3.85;;;1.67;;
75548;SDS011;64133;56.002;37.208;2023-07-29T00:08:22;2.33;;;1.15;;
75548;SDS011;64133;56.002;37.208;2023-07-29T00:13:26;3.83;;;1.40;;
75548;SDS011;64133;56.002;37.208;2023-07-29T00:18:31;3.08;;;1.55;;
75548;SDS011;64133;56.002;37.208;2023-07-29T00:23:36;2.70;;;1.52;;
75548;SDS011;64133;56.002;37.208;2023-07-29T00:28:43;6.80;;;2.22;;
75548;SDS011;64133;56.002;37.208;2023-07-29T00:33:48;3.47;;;1.25;;
75548;SDS011;64133;56.002;37.208;2023-07-29T00:38:53;3.00;;;1.55;;
75548;SDS011;64133;56.002;37.208;2023-07-29T00:43:58;4.75;;;1.50;;
75548;SDS011;64133;56.002;37.208;2023-07-29T00:49:02;2.37;;;1.25;;
75548;SDS011;64133;56.002;37.208;2023-07-29T00:54:07;2.62;;;1.70;;
75548;SDS011;64133;56.002;37.208;2023-07-29T00:59:12;2.47;;;1.12;;
75548;SDS011;64133;56.002;37.208;2023-07-29T01:04:17;3.33;;;1.52;;
75548;SDS011;64133;56.002;37.208;2023-07-29T01:09:26;5.33;;;1.55;;
75548;SDS011;64133;56.002;37.208;2023-07-29T01:14:28;5.03;;;1.17;;
75548;SDS011;64133;56.002;37.208;2023-07-29T01:19:46;6.53;;;1.60;;
75548;SDS011;64133;56.002;37.208;2023-07-29T01:24:47;4.00;;;1.55;;
75548;SDS011;64133;56.002;37.208;2023-07-29T01:29:52;3.27;;;1.75;;
75548;SDS011;64133;56.002;37.208;2023-07-29T01:34:59;2.98;;;1.70;;
75548;SDS011;64133;56.002;37.208;2023-07-29T01:40:02;3.17;;;1.60;;
75548;SDS011;64133;56.002;37.208;2023-07-29T01:45:07;4.08;;;1.47;;
75548;SDS011;64133;56.002;37.208;2023-07-29T01:50:12;5.37;;;1.45;;
75548;SDS011;64133;56.002;37.208;2023-07-29T01:55:17;3.98;;;1.70;;
75548;SDS011;64133;56.002;37.208;2023-07-29T02:00:22;2.87;;;1.10;;
75548;SDS011;64133;56.002;37.208;2023-07-29T02:05:27;2.33;;;1.22;;
75548;SDS011;64133;56.002;37.208;2023-07-29T02:10:31;2.40;;;1.32;;
75548;SDS011;64133;56.002;37.208;2023-07-29T02:15:36;2.83;;;1.60;;
75548;SDS011;64133;56.002;37.208;2023-07-29T02:20:41;5.78;;;1.70;;
75548;SDS011;64133;56.002;37.208;2023-07-29T02:25:45;2.67;;;1.40;;
75548;SDS011;64133;56.002;37.208;2023-07-29T02:31:08;2.52;;;1.27;;
75548;SDS011;64133;56.002;37.208;2023-07-29T02:35:59;2.20;;;1.05;;
75548;SDS011;64133;56.002;37.208;2023-07-29T02:41:04;2.25;;;1.20;;
75548;SDS011;64133;56.002;37.208;2023-07-29T02:46:09;2.08;;;1.12;;
75548;SDS011;64133;56.002;37.208;2023-07-29T02:51:14;3.58;;;1.60;;
75548;SDS011;64133;56.002;37.208;2023-07-29T02:56:19;2.42;;;1.22;;
75548;SDS011;64133;56.002;37.208;2023-07-29T03:01:23;4.10;;;1.72;;
75548;SDS011;64133;56.002;37.208;2023-07-29T03:06:28;3.47;;;1.72;;
75548;SDS011;64133;56.002;37.208;2023-07-29T03:11:35;2.62;;;1.10;;
75548;SDS011;64133;56.002;37.208;2023-07-29T03:16:40;2.87;;;1.65;;
75548;SDS011;64133;56.002;37.208;2023-07-29T03:21:44;4.17;;;1.72;;
75548;SDS011;64133;56.002;37.208;2023-07-29T03:26:49;3.20;;;1.75;;
75548;SDS011;64133;56.002;37.208;2023-07-29T03:31:54;7.03;;;1.95;;
75548;SDS011;64133;56.002;37.208;2023-07-29T03:37:00;3.02;;;1.52;;
75548;SDS011;64133;56.002;37.208;2023-07-29T03:42:04;7.17;;;2.20;;
75548;SDS011;64133;56.002;37.208;2023-07-29T03:47:09;3.27;;;2.00;;
75548;SDS011;64133;56.002;37.208;2023-07-29T03:52:14;2.58;;;1.65;;
75548;SDS011;64133;56.002;37.208;2023-07-29T03:57:19;3.33;;;1.80;;
75548;SDS011;64133;56.002;37.208;2023-07-29T04:02:24;3.25;;;1.60;;
75548;SDS011;64133;56.002;37.208;2023-07-29T04:07:28;4.15;;;1.60;;
75548;SDS011;64133;56.002;37.208;2023-07-29T04:12:33;3.50;;;1.77;;
75548;SDS011;64133;56.002;37.208;2023-07-29T04:17:38;3.67;;;1.55;;
75548;SDS011;64133;56.002;37.208;2023-07-29T04:22:42;3.60;;;1.85;;
75548;SDS011;64133;56.002;37.208;2023-07-29T04:27:47;3.12;;;1.50;;
75548;SDS011;64133;56.002;37.208;2023-07-29T04:32:52;3.55;;;1.95;;
75548;SDS011;64133;56.002;37.208;2023-07-29T04:37:57;3.17;;;1.42;;
75548;SDS011;64133;56.002;37.208;2023-07-29T04:43:01;4.08;;;1.52;;
75548;SDS011;64133;56.002;37.208;2023-07-29T04:48:06;4.67;;;1.55;;
75548;SDS011;64133;56.002;37.208;2023-07-29T04:53:11;2.92;;;1.60;;
75548;SDS011;64133;56.002;37.208;2023-07-29T04:58:16;3.17;;;1.77;;
75548;SDS011;64133;56.002;37.208;2023-07-29T05:03:20;2.75;;;1.70;;
75548;SDS011;64133;56.002;37.208;2023-07-29T05:08:25;2.65;;;1.37;;
75548;SDS011;64133;56.002;37.208;2023-07-29T05:13:30;3.05;;;2.30;;
75548;SDS011;64133;56.002;37.208;2023-07-29T05:18:34;5.08;;;1.70;;
75548;SDS011;64133;56.002;37.208;2023-07-29T05:23:39;3.40;;;1.80;;
75548;SDS011;64133;56.002;37.208;2023-07-29T05:28:44;2.67;;;1.52;;
75548;SDS011;64133;56.002;37.208;2023-07-29T05:33:48;3.12;;;1.22;;
75548;SDS011;64133;56.002;37.208;2023-07-29T05:38:53;2.47;;;1.37;;
75548;SDS011;64133;56.002;37.208;2023-07-29T05:43:58;6.47;;;3.33;;
75548;SDS011;64133;56.002;37.208;2023-07-29T05:49:02;4.80;;;1.75;;
75548;SDS011;64133;56.002;37.208;2023-07-29T05:54:07;4.00;;;1.70;;
75548;SDS011;64133;56.002;37.208;2023-07-29T05:59:12;2.58;;;1.22;;
75548;SDS011;64133;56.002;37.208;2023-07-29T06:04:17;1.95;;;1.17;;
75548;SDS011;64133;56.002;37.208;2023-07-29T06:09:21;2.22;;;1.17;;
75548;SDS011;64133;56.002;37.208;2023-07-29T06:14:26;2.65;;;1.60;;
75548;SDS011;64133;56.002;37.208;2023-07-29T06:19:31;5.40;;;1.50;;
75548;SDS011;64133;56.002;37.208;2023-07-29T06:24:35;2.95;;;1.50;;
75548;SDS011;64133;56.002;37.208;2023-07-29T06:29:40;2.52;;;1.40;;
75548;SDS011;64133;56.002;37.208;2023-07-29T06:34:45;3.90;;;1.42;;
75548;SDS011;64133;56.002;37.208;2023-07-29T06:39:50;2.05;;;1.25;;
75548;SDS011;64133;56.002;37.208;2023-07-29T06:44:54;2.10;;;1.35;;
75548;SDS011;64133;56.002;37.208;2023-07-29T06:49:59;2.95;;;1.37;;
75548;SDS011;64133;56.002;37.208;2023-07-29T06:55:04;2.00;;;1.40;;
75548;SDS011;64133;56.002;37.208;2023-07-29T07:00:10;2.83;;;1.52;;
75548;SDS011;64133;56.002;37.208;2023-07-29T07:05:15;1.92;;;1.35;;
75548;SDS011;64133;56.002;37.208;2023-07-29T07:10:20;3.87;;;1.40;;
75548;SDS011;64133;56.002;37.208;2023-07-29T07:15:24;4.65;;;1.72;;
75548;SDS011;64133;56.002;37.208;2023-07-29T07:20:29;2.77;;;1.70;;
75548;SDS011;64133;56.002;37.208;2023-07-29T07:25:34;3.37;;;1.35;;
75548;SDS011;64133;56.002;37.208;2023-07-29T07:30:40;4.70;;;1.62;;
75548;SDS011;64133;56.002;37.208;2023-07-29T07:35:44;3.52;;;1.32;;
75548;SDS011;64133;56.002;37.208;2023-07-29T07:40:55;1.70;;;1.00;;
75548;SDS011;64133;56.002;37.208;2023-07-29T07:46:00;2.17;;;1.20;;
75548;SDS011;64133;56.002;37.208;2023-07-29T07:51:10;4.33;;;1.70;;
75548;SDS011;64133;56.002;37.208;2023-07-29T07:56:15;3.92;;;1.50;;
75548;SDS011;64133;56.002;37.208;2023-07-29T08:01:20;3.12;;;1.15;;
75548;SDS011;64133;56.002;37.208;2023-07-29T08:06:24;3.40;;;1.52;;
75548;SDS011;64133;56.002;37.208;2023-07-29T08:11:29;2.87;;;1.10;;
75548;SDS011;64133;56.002;37.208;2023-07-29T08:16:34;3.70;;;1.30;;
75548;SDS011;64133;56.002;37.208;2023-07-29T08:21:39;3.40;;;1.52;;
75548;SDS011;64133;56.002;37.208;2023-07-29T08:26:43;2.47;;;1.45;;
75548;SDS011;64133;56.002;37.208;2023-07-29T08:31:48;1.62;;;0.90;;
75548;SDS011;64133;56.002;37.208;2023-07-29T08:36:53;2.25;;;1.60;;
75548;SDS011;64133;56.002;37.208;2023-07-29T08:41:59;2.85;;;1.37;;
75548;SDS011;64133;56.002;37.208;2023-07-29T08:47:04;3.70;;;1.45;;
75548;SDS011;64133;56.002;37.208;2023-07-29T08:52:08;3.33;;;1.10;;
75548;SDS011;64133;56.002;37.208;2023-07-29T08:57:14;3.77;;;1.42;;
75548;SDS011;64133;56.002;37.208;2023-07-29T09:02:18;4.55;;;1.60;;
75548;SDS011;64133;56.002;37.208;2023-07-29T09:07:23;4.65;;;1.37;;
75548;SDS011;64133;56.002;37.208;2023-07-29T09:12:28;2.70;;;1.37;;
75548;SDS011;64133;56.002;37.208;2023-07-29T09:17:32;2.30;;;1.20;;
75548;SDS011;64133;56.002;37.208;2023-07-29T09:22:37;2.60;;;1.20;;
75548;SDS011;64133;56.002;37.208;2023-07-29T09:27:42;2.70;;;1.10;;
75548;SDS011;64133;56.002;37.208;2023-07-29T09:32:46;2.45;;;1.25;;
75548;SDS011;64133;56.002;37.208;2023-07-29T09:37:51;3.60;;;1.40;;
75548;SDS011;64133;56.002;37.208;2023-07-29T09:42:56;4.90;;;1.65;;
75548;SDS011;64133;56.002;37.208;2023-07-29T09:48:02;5.62;;;1.47;;
75548;SDS011;64133;56.002;37.208;2023-07-29T09:53:06;2.80;;;1.17;;
75548;SDS011;64133;56.002;37.208;2023-07-29T09:58:11;3.05;;;1.60;;
75548;SDS011;64133;56.002;37.208;2023-07-29T10:03:15;2.47;;;1.00;;
75548;SDS011;64133;56.002;37.208;2023-07-29T10:08:20;2.83;;;1.50;;
75548;SDS011;64133;56.002;37.208;2023-07-29T10:13:27;3.25;;;1.17;;
75548;SDS011;64133;56.002;37.208;2023-07-29T10:18:32;2.90;;;1.20;;
75548;SDS011;64133;56.002;37.208;2023-07-29T10:23:38;2.00;;;1.02;;
75548;SDS011;64133;56.002;37.208;2023-07-29T10:28:45;2.00;;;1.10;;
75548;SDS011;64133;56.002;37.208;2023-07-29T10:33:47;2.10;;;1.20;;
75548;SDS011;64133;56.002;37.208;2023-07-29T10:38:52;3.30;;;1.17;;
75548;SDS011;64133;56.002;37.208;2023-07-29T10:43:57;2.05;;;1.02;;
75548;SDS011;64133;56.002;37.208;2023-07-29T10:49:01;2.27;;;1.10;;
75548;SDS011;64133;56.002;37.208;2023-07-29T10:54:10;2.15;;;0.88;;
75548;SDS011;64133;56.002;37.208;2023-07-29T10:59:32;3.33;;;1.57;;
75548;SDS011;64133;56.002;37.208;2023-07-29T11:04:45;1.75;;;0.90;;
75548;SDS011;64133;56.002;37.208;2023-07-29T11:09:52;2.02;;;0.90;;
75548;SDS011;64133;56.002;37.208;2023-07-29T11:15:00;2.15;;;1.10;;
75548;SDS011;64133;56.002;37.208;2023-07-29T11:20:17;2.58;;;1.02;;
75548;SDS011;64133;56.002;37.208;2023-07-29T11:25:22;1.80;;;0.90;;
75548;SDS011;64133;56.002;37.208;2023-07-29T11:30:26;2.22;;;1.02;;
75548;SDS011;64133;56.002;37.208;2023-07-29T11:35:31;3.72;;;1.42;;
75548;SDS011;64133;56.002;37.208;2023-07-29T11:40:36;2.08;;;1.17;;
75548;SDS011;64133;56.002;37.208;2023-07-29T11:45:40;3.35;;;1.42;;
75548;SDS011;64133;56.002;37.208;2023-07-29T11:50:45;4.28;;;1.27;;
75548;SDS011;64133;56.002;37.208;2023-07-29T11:55:51;3.35;;;1.15;;
75548;SDS011;64133;56.002;37.208;2023-07-29T12:00:55;4.42;;;1.30;;
75548;SDS011;64133;56.002;37.208;2023-07-29T12:06:00;6.47;;;1.10;;
75548;SDS011;64133;56.002;37.208;2023-07-29T12:11:05;3.08;;;1.30;;
75548;SDS011;64133;56.002;37.208;2023-07-29T12:16:10;3.08;;;1.27;;
75548;SDS011;64133;56.002;37.208;2023-07-29T12:21:14;3.22;;;2.12;;
75548;SDS011;64133;56.002;37.208;2023-07-29T12:26:19;3.05;;;1.52;;
75548;SDS011;64133;56.002;37.208;2023-07-29T12:31:28;2.12;;;1.10;;
75548;SDS011;64133;56.002;37.208;2023-07-29T12:36:42;3.02;;;1.12;;
75548;SDS011;64133;56.002;37.208;2023-07-29T12:41:50;4.33;;;1.20;;
75548;SDS011;64133;56.002;37.208;2023-07-29T12:46:54;3.20;;;1.15;;
75548;SDS011;64133;56.002;37.208;2023-07-29T12:51:59;2.40;;;1.02;;
75548;SDS011;64133;56.002;37.208;2023-07-29T12:57:09;4.20;;;1.20;;
75548;SDS011;64133;56.002;37.208;2023-07-29T13:02:14;2.35;;;1.30;;
75548;SDS011;64133;56.002;37.208;2023-07-29T13:18:22;5.40;;;1.65;;
75548;SDS011;64133;56.002;37.208;2023-07-29T13:23:27;3.87;;;1.40;;
75548;SDS011;64133;56.002;37.208;2023-07-29T13:28:36;2.90;;;1.90;;
75548;SDS011;64133;56.002;37.208;2023-07-29T13:33:39;4.87;;;1.62;;
75548;SDS011;64133;56.002;37.208;2023-07-29T13:38:43;1.70;;;1.22;;
75548;SDS011;64133;56.002;37.208;2023-07-29T13:43:48;6.03;;;1.50;;
75548;SDS011;64133;56.002;37.208;2023-07-29T13:48:53;2.30;;;1.60;;
75548;SDS011;64133;56.002;37.208;2023-07-29T13:54:00;2.37;;;1.47;;
75548;SDS011;64133;56.002;37.208;2023-07-29T13:59:05;6.37;;;2.25;;
75548;SDS011;64133;56.002;37.208;2023-07-29T14:04:09;5.70;;;2.42;;
75548;SDS011;64133;56.002;37.208;2023-07-29T14:09:14;6.03;;;2.80;;
75548;SDS011;64133;56.002;37.208;2023-07-29T14:14:19;2.20;;;1.30;;
75548;SDS011;64133;56.002;37.208;2023-07-29T14:19:24;5.58;;;2.55;;
75548;SDS011;64133;56.002;37.208;2023-07-29T14:24:28;3.90;;;2.33;;
75548;SDS011;64133;56.002;37.208;2023-07-29T14:29:33;6.90;;;1.95;;
75548;SDS011;64133;56.002;37.208;2023-07-29T14:34:38;6.67;;;1.92;;
75548;SDS011;64133;56.002;37.208;2023-07-29T14:39:43;4.17;;;2.12;;
75548;SDS011;64133;56.002;37.208;2023-07-29T14:44:47;4.87;;;2.00;;
75548;SDS011;64133;56.002;37.208;2023-07-29T14:49:52;2.87;;;1.47;;
75548;SDS011;64133;56.002;37.208;2023-07-29T14:54:57;4.03;;;1.62;;
75548;SDS011;64133;56.002;37.208;2023-07-29T15:00:01;2.55;;;1.10;;
75548;SDS011;64133;56.002;37.208;2023-07-29T15:05:07;2.30;;;1.25;;
75548;SDS011;64133;56.002;37.208;2023-07-29T15:10:13;3.52;;;1.62;;
75548;SDS011;64133;56.002;37.208;2023-07-29T15:15:18;4.37;;;2.70;;
75548;SDS011;64133;56.002;37.208;2023-07-29T15:20:23;5.05;;;1.77;;
75548;SDS011;64133;56.002;37.208;2023-07-29T15:25:28;3.33;;;1.50;;
75548;SDS011;64133;56.002;37.208;2023-07-29T15:30:33;3.62;;;1.57;;
75548;SDS011;64133;56.002;37.208;2023-07-29T15:35:39;3.95;;;1.60;;
75548;SDS011;64133;56.002;37.208;2023-07-29T15:40:44;3.02;;;1.10;;
75548;SDS011;64133;56.002;37.208;2023-07-29T15:45:49;2.25;;;1.35;;
75548;SDS011;64133;56.002;37.208;2023-07-29T15:50:53;2.25;;;1.37;;
75548;SDS011;64133;56.002;37.208;2023-07-29T15:55:58;2.85;;;1.77;;
75548;SDS011;64133;56.002;37.208;2023-07-29T16:01:03;4.25;;;2.50;;
75548;SDS011;64133;56.002;37.208;2023-07-29T16:06:07;5.72;;;3.37;;
75548;SDS011;64133;56.002;37.208;2023-07-29T16:11:12;10.45;;;5.15;;
75548;SDS011;64133;56.002;37.208;2023-07-29T16:16:17;3.90;;;2.33;;
75548;SDS011;64133;56.002;37.208;2023-07-29T16:21:22;2.72;;;1.50;;
75548;SDS011;64133;56.002;37.208;2023-07-29T16:26:26;3.83;;;1.90;;
75548;SDS011;64133;56.002;37.208;2023-07-29T16:31:31;5.95;;;2.80;;
75548;SDS011;64133;56.002;37.208;2023-07-29T16:36:36;4.12;;;1.40;;
75548;SDS011;64133;56.002;37.208;2023-07-29T16:41:41;3.12;;;1.82;;
75548;SDS011;64133;56.002;37.208;2023-07-29T16:46:46;4.15;;;2.12;;
75548;SDS011;64133;56.002;37.208;2023-07-29T16:51:51;5.58;;;2.85;;
75548;SDS011;64133;56.002;37.208;2023-07-29T16:56:56;4.30;;;1.95;;
75548;SDS011;64133;56.002;37.208;2023-07-29T17:02:01;2.92;;;1.92;;
75548;SDS011;64133;56.002;37.208;2023-07-29T17:07:05;3.25;;;2.58;;
75548;SDS011;64133;56.002;37.208;2023-07-29T17:12:10;5.62;;;2.67;;
75548;SDS011;64133;56.002;37.208;2023-07-29T17:17:15;3.80;;;2.40;;
75548;SDS011;64133;56.002;37.208;2023-07-29T17:22:20;5.80;;;2.52;;
75548;SDS011;64133;56.002;37.208;2023-07-29T17:27:24;5.40;;;3.08;;
75548;SDS011;64133;56.002;37.208;2023-07-29T17:32:29;10.53;;;3.22;;
75548;SDS011;64133;56.002;37.208;2023-07-29T17:37:34;5.92;;;3.12;;
75548;SDS011;64133;56.002;37.208;2023-07-29T17:42:38;5.50;;;2.85;;
75548;SDS011;64133;56.002;37.208;2023-07-29T17:47:43;4.92;;;2.58;;
75548;SDS011;64133;56.002;37.208;2023-07-29T17:52:48;4.75;;;2.83;;
75548;SDS011;64133;56.002;37.208;2023-07-29T17:57:52;5.25;;;3.00;;
75548;SDS011;64133;56.002;37.208;2023-07-29T18:02:57;7.30;;;3.12;;
75548;SDS011;64133;56.002;37.208;2023-07-29T18:08:02;7.75;;;3.20;;
75548;SDS011;64133;56.002;37.208;2023-07-29T18:13:10;7.75;;;2.77;;
75548;SDS011;64133;56.002;37.208;2023-07-29T18:18:14;4.55;;;2.47;;
75548;SDS011;64133;56.002;37.208;2023-07-29T18:23:19;5.83;;;3.00;;
75548;SDS011;64133;56.002;37.208;2023-07-29T18:28:24;5.65;;;3.42;;
75548;SDS011;64133;56.002;37.208;2023-07-29T18:33:29;5.17;;;3.20;;
75548;SDS011;64133;56.002;37.208;2023-07-29T18:38:34;11.85;;;5.35;;
75548;SDS011;64133;56.002;37.208;2023-07-29T18:43:38;8.15;;;3.90;;
75548;SDS011;64133;56.002;37.208;2023-07-29T18:48:43;6.80;;;3.65;;
75548;SDS011;64133;56.002;37.208;2023-07-29T18:53:48;7.70;;;3.80;;
75548;SDS011;64133;56.002;37.208;2023-07-29T18:58:55;10.08;;;4.55;;
75548;SDS011;64133;56.002;37.208;2023-07-29T19:04:00;6.80;;;4.45;;
75548;SDS011;64133;56.002;37.208;2023-07-29T19:09:05;8.18;;;4.87;;
75548;SDS011;64133;56.002;37.208;2023-07-29T19:14:10;10.95;;;4.62;;
75548;SDS011;64133;56.002;37.208;2023-07-29T19:19:15;10.45;;;4.40;;
75548;SDS011;64133;56.002;37.208;2023-07-29T19:24:20;11.03;;;5.10;;
75548;SDS011;64133;56.002;37.208;2023-07-29T19:29:24;8.08;;;4.42;;
75548;SDS011;64133;56.002;37.208;2023-07-29T19:34:29;6.55;;;3.55;;
75548;SDS011;64133;56.002;37.208;2023-07-29T19:39:34;7.65;;;4.17;;
75548;SDS011;64133;56.002;37.208;2023-07-29T19:44:40;11.90;;;7.15;;
75548;SDS011;64133;56.002;37.208;2023-07-29T19:49:45;9.05;;;4.87;;
75548;SDS011;64133;56.002;37.208;2023-07-29T19:54:49;11.85;;;5.05;;
75548;SDS011;64133;56.002;37.208;2023-07-29T19:59:54;10.95;;;6.10;;
75548;SDS011;64133;56.002;37.208;2023-07-29T20:04:59;10.43;;;5.62;;
75548;SDS011;64133;56.002;37.208;2023-07-29T20:10:04;8.30;;;4.37;;
75548;SDS011;64133;56.002;37.208;2023-07-29T20:15:10;9.03;;;4.30;;
75548;SDS011;64133;56.002;37.208;2023-07-29T20:20:15;9.80;;;5.67;;
75548;SDS011;64133;56.002;37.208;2023-07-29T20:25:19;11.45;;;4.30;;
75548;SDS011;64133;56.002;37.208;2023-07-29T20:30:24;7.55;;;4.67;;
75548;SDS011;64133;56.002;37.208;2023-07-29T20:35:29;9.13;;;4.50;;
75548;SDS011;64133;56.002;37.208;2023-07-29T20:40:34;7.78;;;4.50;;
75548;SDS011;64133;56.002;37.208;2023-07-29T20:45:38;6.42;;;3.80;;
75548;SDS011;64133;56.002;37.208;2023-07-29T20:50:43;7.80;;;4.05;;
75548;SDS011;64133;56.002;37.208;2023-07-29T20:55:48;7.80;;;3.95;;
75548;SDS011;64133;56.002;37.208;2023-07-29T21:00:54;5.53;;;3.02;;
75548;SDS011;64133;56.002;37.208;2023-07-29T21:05:58;6.00;;;3.35;;
75548;SDS011;64133;56.002;37.208;2023-07-29T21:11:03;6.33;;;3.80;;
75548;SDS011;64133;56.002;37.208;2023-07-29T21:16:08;7.65;;;4.10;;
75548;SDS011;64133;56.002;37.208;2023-07-29T21:21:12;6.55;;;4.25;;
75548;SDS011;64133;56.002;37.208;2023-07-29T21:26:17;10.78;;;4.72;;
75548;SDS011;64133;56.002;37.208;2023-07-29T21:31:22;5.53;;;3.42;;
75548;SDS011;64133;56.002;37.208;2023-07-29T21:36:42;9.25;;;3.52;;
75548;SDS011;64133;56.002;37.208;2023-07-29T21:41:46;6.05;;;3.72;;
75548;SDS011;64133;56.002;37.208;2023-07-29T21:46:51;8.50;;;3.80;;
75548;SDS011;64133;56.002;37.208;2023-07-29T21:51:56;9.35;;;4.03;;
75548;SDS011;64133;56.002;37.208;2023-07-29T21:57:01;6.47;;;3.45;;
75548;SDS011;64133;56.002;37.208;2023-07-29T22:02:06;8.43;;;3.50;;
75548;SDS011;64133;56.002;37.208;2023-07-29T22:07:10;4.20;;;2.40;;
75548;SDS011;64133;56.002;37.208;2023-07-29T22:12:15;4.58;;;2.52;;
75548;SDS011;64133;56.002;37.208;2023-07-29T22:17:20;7.67;;;3.95;;
75548;SDS011;64133;56.002;37.208;2023-07-29T22:22:24;12.28;;;6.72;;
75548;SDS011;64133;56.002;37.208;2023-07-29T22:27:29;14.40;;;9.43;;
75548;SDS011;64133;56.002;37.208;2023-07-29T22:32:34;13.45;;;9.20;;
75548;SDS011;64133;56.002;37.208;2023-07-29T22:37:39;15.72;;;11.30;;
75548;SDS011;64133;56.002;37.208;2023-07-29T22:42:43;26.65;;;14.87;;
75548;SDS011;64133;56.002;37.208;2023-07-29T22:47:48;22.35;;;15.00;;
75548;SDS011;64133;56.002;37.208;2023-07-29T22:52:53;17.92;;;11.38;;
75548;SDS011;64133;56.002;37.208;2023-07-29T22:57:58;18.37;;;10.25;;
75548;SDS011;64133;56.002;37.208;2023-07-29T23:03:02;11.80;;;7.75;;
75548;SDS011;64133;56.002;37.208;2023-07-29T23:08:07;13.88;;;7.50;;
75548;SDS011;64133;56.002;37.208;2023-07-29T23:13:12;10.05;;;6.72;;
75548;SDS011;64133;56.002;37.208;2023-07-29T23:18:16;9.55;;;5.90;;
75548;SDS011;64133;56.002;37.208;2023-07-29T23:23:21;13.32;;;5.70;;
75548;SDS011;64133;56.002;37.208;2023-07-29T23:28:26;9.83;;;6.28;;
75548;SDS011;64133;56.002;37.208;2023-07-29T23:33:30;12.63;;;6.97;;
75548;SDS011;64133;56.002;37.208;2023-07-29T23:38:35;17.87;;;8.43;;
75548;SDS011;64133;56.002;37.208;2023-07-29T23:43:40;14.45;;;7.90;;
75548;SDS011;64133;56.002;37.208;2023-07-29T23:48:45;14.05;;;8.00;;
75548;SDS011;64133;56.002;37.208;2023-07-29T23:53:49;13.78;;;7.58;;
75548;SDS011;64133;56.002;37.208;2023-07-29T23:58:54;16.55;;;6.60;;
